Airfield :
LOGIN :

Register | Disclaimer

   EN    FR    IT 

 










Legend :    VFR   Marginal VFR   IFR   Intensive IFR   Very Intensive IFR
Visi :
Ceiling :
>= 8 km
>= 3000ft
5 to 8 km
1000 to 3000 ft
1500m to 5 km
500 to 1000 ft
800 to 1500m
200 to 500 ft
< 800m
< 200 ft
Symbols :   Thunderstorms  Fog  Heavy snow  Heavy precipitations  Wind > 20 kt
SIGMETs :     Misc.  Thunderstorms  Icing  Turbulence  Mountain Waves  Volcanic Ashes






- Airport Elevation : 699 ft
- IATA code : PAD


EDLP - Paderborn Lippstadt

CURRENT METAR :
  • 181320Z 08004KT 010V140 CAVOK 26/12 Q1021

EXPIRED METARs :
  • 181250Z 07004KT 030V170 CAVOK 25/13 Q1021
  • 181220Z 11006KT CAVOK 25/12 Q1022
  • 181150Z VRB04KT CAVOK 26/10 Q1022
  • 181120Z 21005KT 160V290 CAVOK 26/10 Q1022
  • 181050Z 24005KT 190V280 CAVOK 25/09 Q1022

TAF TAF EDLP
Valid from the 18 at 12:00 until the 19 at 12:00 UTC


181100Z 1812/1912 22006KT CAVOK
BECMG 1812/1815 16006KT
BECMG 1903/1906 18011KT



MET'MAP, your aeronautical weather chart ! - Copyright ORBIFLY December 2007 - Disclaimer

ORBIFLY MET'MAP TEAM :

Programming & Development : Alexandra Zaïnal
Original concept : Baudouin d'Aumeries
Technical & hardware support : Manuel Goepfert
Assistance : Marc-Olivier Méhu

Contact : metmap@orbifly.com




SOURCES & CREDITS :

   NOAA